Time;durP1;ratioP1;P1;durP2;ratioP2;P2;SDS_P1;SDS_P2;PMS_P1;PMS_P2;Temp;Humidity;BMP_temperature;BMP_pressure;BME280_temperature;BME280_humidity;BME280_pressure;Samples;Min_cycle;Max_cycle;Signal;HPM_P1;HPM_P2
2024/04/03 00:01:32;;;;;;;;;3.00;0.75;;;;;13.06;71.99;100093.16;5060619;28;68000;-52
2024/04/03 00:03:57;;;;;;;;;1.00;0.00;;;;;13.05;71.95;100096.72;5059626;28;67866;-48
2024/04/03 00:06:23;;;;;;;;;0.00;0.00;;;;;13.05;72.37;100095.84;5055737;28;69316;-51
2024/04/03 00:08:48;;;;;;;;;3.50;2.00;;;;;13.04;72.60;100099.44;5058878;28;72041;-51
2024/04/03 00:11:13;;;;;;;;;3.50;0.50;;;;;13.02;72.70;100089.00;5072960;28;75295;-51
2024/04/03 00:13:39;;;;;;;;;1.00;0.00;;;;;12.99;72.85;100086.50;5058738;28;65176;-54
2024/04/03 00:16:04;;;;;;;;;0.25;0.25;;;;;12.95;73.30;100077.06;5058845;28;47954;-51
2024/04/03 00:18:30;;;;;;;;;1.50;1.00;;;;;12.91;73.68;100080.78;5057092;28;46412;-55
2024/04/03 00:21:02;;;;;;;;;2.00;1.00;;;;;12.89;73.95;100079.97;5060489;28;46260;-52
2024/04/03 00:23:27;;;;;;;;;1.00;1.00;;;;;12.89;74.03;100087.84;5052685;28;45705;-49
2024/04/03 00:26:00;;;;;;;;;3.25;1.00;;;;;12.85;74.19;100081.88;5053621;28;45424;-52
2024/04/03 00:28:27;;;;;;;;;0.75;0.00;;;;;12.83;74.17;100075.88;5059948;28;45466;-52
2024/04/03 00:30:52;;;;;;;;;2.25;1.00;;;;;12.80;74.26;100073.41;5055988;28;47190;-51
2024/04/03 00:33:18;;;;;;;;;1.00;1.00;;;;;12.77;74.56;100076.16;5056946;28;45512;-51
2024/04/03 00:35:59;;;;;;;;;1.00;1.00;;;;;12.79;74.81;100070.84;5060323;28;45481;-54
2024/04/03 00:38:25;;;;;;;;;2.00;0.00;;;;;12.79;74.91;100061.19;5059922;28;45477;-54
2024/04/03 00:40:59;;;;;;;;;1.25;0.00;;;;;12.77;74.69;100059.56;5058456;28;45526;-51
2024/04/03 00:43:25;;;;;;;;;0.00;0.00;;;;;12.78;74.85;100050.75;5056541;28;45425;-52
2024/04/03 00:45:52;;;;;;;;;1.00;1.00;;;;;12.77;75.41;100057.78;5059841;28;47250;-53
2024/04/03 00:48:17;;;;;;;;;2.00;0.00;;;;;12.76;75.39;100056.06;5054660;28;45362;-50
2024/04/03 00:50:44;;;;;;;;;1.50;0.00;;;;;12.75;75.22;100050.91;5057081;28;46201;-53
2024/04/03 00:53:10;;;;;;;;;1.00;1.00;;;;;12.74;75.18;100052.69;5045445;28;45420;-50
2024/04/03 00:55:36;;;;;;;;;0.00;0.00;;;;;12.71;75.91;100039.69;5055075;28;45272;-48
2024/04/03 00:58:02;;;;;;;;;3.00;0.00;;;;;12.71;75.79;100031.81;5059504;28;45525;-48
2024/04/03 01:00:27;;;;;;;;;1.00;0.00;;;;;12.67;75.96;100028.47;5057204;28;46592;-52
2024/04/03 01:02:53;;;;;;;;;0.00;0.00;;;;;12.66;76.10;100029.41;5053929;28;45319;-53
2024/04/03 01:05:18;;;;;;;;;2.75;1.00;;;;;12.64;76.05;100028.66;5059174;28;68914;-52
2024/04/03 01:07:43;;;;;;;;;2.00;0.00;;;;;12.62;76.82;100027.84;5058345;28;72011;-52
2024/04/03 01:10:09;;;;;;;;;1.00;0.00;;;;;12.61;77.00;100017.44;5058837;28;75202;-51
2024/04/03 01:12:34;;;;;;;;;1.75;0.50;;;;;12.60;76.67;100018.34;5057993;27;45546;-52
2024/04/03 01:14:59;;;;;;;;;0.00;0.00;;;;;12.57;77.28;100014.09;5056609;28;66985;-54
2024/04/03 01:17:25;;;;;;;;;0.00;0.00;;;;;12.56;77.08;100011.56;5055633;28;71803;-53
2024/04/03 01:19:50;;;;;;;;;1.25;0.00;;;;;12.54;77.64;100009.84;5057620;28;46143;-54
2024/04/03 01:22:15;;;;;;;;;2.50;1.50;;;;;12.52;77.98;100010.84;5050307;28;64647;-54
2024/04/03 01:24:41;;;;;;;;;1.00;1.00;;;;;12.50;77.75;100005.66;5046640;28;65546;-49
2024/04/03 01:27:06;;;;;;;;;3.00;2.00;;;;;12.52;78.40;100011.69;5052631;28;70607;-52
2024/04/03 01:29:33;;;;;;;;;1.00;1.00;;;;;12.51;78.17;100003.88;5045545;28;75371;-51
2024/04/03 01:31:58;;;;;;;;;3.00;1.00;;;;;12.46;78.41;99985.72;5058121;28;45337;-54
2024/04/03 01:34:24;;;;;;;;;1.50;1.00;;;;;12.53;78.92;100000.25;5057271;28;69392;-53
2024/04/03 01:36:49;;;;;;;;;1.00;1.00;;;;;12.53;78.78;99981.88;5056035;28;70784;-50
2024/04/03 01:39:15;;;;;;;;;0.25;0.00;;;;;12.51;78.84;99982.88;5057085;28;46087;-51
2024/04/03 01:41:41;;;;;;;;;1.25;1.00;;;;;12.51;79.31;99982.88;5055053;28;45518;-53
2024/04/03 01:44:06;;;;;;;;;2.00;1.00;;;;;12.50;79.51;99982.03;5043491;28;45502;-53
2024/04/03 01:46:32;;;;;;;;;2.00;2.00;;;;;12.48;79.59;99972.53;5049565;28;71477;-52
2024/04/03 01:48:57;;;;;;;;;1.00;0.00;;;;;12.47;79.69;99970.84;5054769;28;71049;-54
2024/04/03 01:51:22;;;;;;;;;2.00;0.25;;;;;12.46;79.83;99966.50;5052409;28;53625;-53
2024/04/03 01:53:48;;;;;;;;;0.75;0.75;;;;;12.42;80.18;99967.59;5050305;28;68025;-51
2024/04/03 01:56:13;;;;;;;;;0.25;0.25;;;;;12.39;80.64;99957.22;5052397;28;45647;-50
2024/04/03 01:58:39;;;;;;;;;3.75;1.00;;;;;12.40;80.95;99956.31;5053916;28;49219;-50
2024/04/03 02:01:04;;;;;;;;;0.75;0.75;;;;;12.38;80.71;99951.13;5053743;28;45272;-53
2024/04/03 02:03:29;;;;;;;;;0.25;0.00;;;;;12.38;80.59;99950.25;5053003;28;69197;-53
2024/04/03 02:05:54;;;;;;;;;1.00;1.00;;;;;12.38;81.01;99952.88;5057970;28;70772;-53
2024/04/03 02:08:20;;;;;;;;;4.00;0.50;;;;;12.39;81.34;99944.09;5055487;28;57501;-53
2024/04/03 02:10:45;;;;;;;;;0.50;0.50;;;;;12.39;81.10;99951.97;5057229;28;73187;-53
2024/04/03 02:13:10;;;;;;;;;1.00;1.00;;;;;12.38;81.41;99938.00;5056660;28;69153;-52
2024/04/03 02:15:37;;;;;;;;;1.00;1.00;;;;;12.35;81.92;99930.28;5053570;28;45549;-50
2024/04/03 02:18:02;;;;;;;;;5.50;4.50;;;;;12.36;81.81;99932.00;5058819;28;46364;-48
2024/04/03 02:20:27;;;;;;;;;1.00;1.00;;;;;12.36;82.22;99937.25;5058272;28;45277;-48
2024/04/03 02:22:53;;;;;;;;;2.50;2.50;;;;;12.34;81.66;99925.94;5054965;28;45637;-49
2024/04/03 02:25:19;;;;;;;;;9.00;7.75;;;;;12.34;82.51;99925.94;5045408;28;73145;-52
2024/04/03 02:27:44;;;;;;;;;10.00;5.75;;;;;12.33;82.13;99926.88;5056647;28;50681;-52
2024/04/03 02:30:10;;;;;;;;;2.00;2.00;;;;;12.33;82.38;99921.63;5049932;28;63460;-50
2024/04/03 02:32:35;;;;;;;;;1.00;1.00;;;;;12.35;82.44;99927.66;5050799;28;45548;-53
2024/04/03 02:35:01;;;;;;;;;3.00;2.00;;;;;12.33;82.67;99929.50;5054090;28;50608;-47
2024/04/03 02:37:26;;;;;;;;;2.00;1.50;;;;;12.32;82.85;99931.28;5052576;28;75406;-55
2024/04/03 02:39:51;;;;;;;;;1.00;1.00;;;;;12.32;82.49;99926.03;5058295;28;67124;-52
2024/04/03 02:42:17;;;;;;;;;1.00;1.00;;;;;12.31;82.99;99921.69;5053806;28;69280;-48
2024/04/03 02:44:42;;;;;;;;;1.00;1.00;;;;;12.32;82.81;99920.78;5040352;28;73122;-51
2024/04/03 02:47:07;;;;;;;;;1.50;1.00;;;;;12.32;82.75;99922.53;5053145;28;75200;-50
2024/04/03 02:49:32;;;;;;;;;2.00;0.75;;;;;12.30;82.90;99917.38;5053946;28;72201;-50
2024/04/03 02:51:58;;;;;;;;;3.00;1.00;;;;;12.30;83.37;99908.66;5056778;28;69568;-48
2024/04/03 02:54:23;;;;;;;;;1.00;0.00;;;;;12.28;83.34;99903.47;5053575;28;72124;-48
2024/04/03 02:56:48;;;;;;;;;0.50;0.00;;;;;12.28;83.18;99908.72;5050987;28;69362;-49
2024/04/03 02:59:14;;;;;;;;;0.00;0.00;;;;;12.28;83.49;99900.00;5055601;28;45312;-53
2024/04/03 03:01:39;;;;;;;;;1.00;0.00;;;;;12.27;83.78;99904.41;5055299;28;66765;-51
2024/04/03 03:04:05;;;;;;;;;0.00;0.00;;;;;12.27;83.90;99903.53;5050173;28;73126;-52
2024/04/03 03:06:31;;;;;;;;;1.50;0.00;;;;;12.24;84.01;99899.31;5043626;28;47104;-51
2024/04/03 03:08:56;;;;;;;;;0.00;0.00;;;;;12.24;84.01;99894.06;5054177;28;46250;-54
2024/04/03 03:11:22;;;;;;;;;1.00;1.00;;;;;12.24;84.07;99895.84;5051164;28;69377;-52
2024/04/03 03:13:47;;;;;;;;;0.50;0.50;;;;;12.24;83.99;99890.59;5056315;28;73434;-49
2024/04/03 03:16:20;;;;;;;;;1.25;1.00;;;;;12.22;84.24;99888.03;5054295;28;72632;-52
2024/04/03 03:18:45;;;;;;;;;0.75;0.75;;;;;12.23;84.31;99891.50;5056787;28;45938;-51
2024/04/03 03:21:11;;;;;;;;;1.00;1.00;;;;;12.23;84.94;99888.88;5052265;28;68406;-51
2024/04/03 03:23:36;;;;;;;;;11.50;10.25;;;;;12.23;84.32;99891.50;5054995;28;64512;-48
2024/04/03 03:26:01;;;;;;;;;3.25;3.25;;;;;12.23;84.75;99887.09;5054813;28;56630;-51
2024/04/03 03:28:27;;;;;;;;;64.25;47.50;;;;;12.21;85.05;99896.81;5055226;28;55779;-53
2024/04/03 03:30:52;;;;;;;;;37.25;21.50;;;;;12.22;84.88;99892.44;5037236;28;67956;-53
2024/04/03 03:33:18;;;;;;;;;2.00;1.00;;;;;12.22;84.93;99879.34;5051272;28;50517;-52
2024/04/03 03:35:51;;;;;;;;;0.50;0.25;;;;;12.22;85.51;99880.16;5055797;28;45783;-52
2024/04/03 03:38:16;;;;;;;;;0.00;0.00;;;;;12.22;84.99;99879.34;5054983;27;45391;-52
2024/04/03 03:40:42;;;;;;;;;3.00;1.00;;;;;12.21;85.43;99867.97;5056676;28;45445;-50
2024/04/03 03:43:07;;;;;;;;;0.50;0.50;;;;;12.23;85.22;99870.53;5057884;28;74125;-53
2024/04/03 03:45:32;;;;;;;;;2.00;0.50;;;;;12.23;84.98;99876.59;5060366;28;74922;-49
2024/04/03 03:47:57;;;;;;;;;3.75;1.00;;;;;12.24;85.37;99864.38;5057667;28;67047;-52
2024/04/03 03:53:07;;;;;;;;;0.75;0.25;;;;;12.24;85.37;99856.50;5056348;28;47239;-49
2024/04/03 03:55:32;;;;;;;;;0.00;0.00;;;;;12.22;85.21;99856.56;5051374;28;46142;-49
2024/04/03 03:57:58;;;;;;;;;1.00;1.00;;;;;12.21;85.61;99857.47;5058109;28;45492;-51
2024/04/03 04:00:24;;;;;;;;;0.00;0.00;;;;;12.21;85.79;99856.63;5059787;28;45464;-49
2024/04/03 04:02:50;;;;;;;;;7.25;5.25;;;;;12.20;85.54;99855.78;5059718;28;45502;-51
2024/04/03 04:05:17;;;;;;;;;104.75;82.00;;;;;12.23;85.95;99849.53;5055429;28;47299;-49
2024/04/03 04:07:43;;;;;;;;;20.50;16.25;;;;;12.22;85.93;99848.69;5052776;28;45613;-52
2024/04/03 04:10:08;;;;;;;;;8.25;6.00;;;;;12.23;85.82;99850.38;5060053;28;45294;-49
2024/04/03 04:12:34;;;;;;;;;9.00;8.00;;;;;12.26;85.79;99847.59;5055701;28;71997;-51
2024/04/03 04:14:59;;;;;;;;;0.50;0.50;;;;;12.25;85.28;99843.31;5058798;28;66305;-50
2024/04/03 04:17:24;;;;;;;;;1.00;1.00;;;;;12.25;85.86;99848.56;5058330;28;71885;-50
2024/04/03 04:19:50;;;;;;;;;0.75;0.75;;;;;12.24;86.15;99846.00;5058323;28;66107;-49
2024/04/03 04:22:16;;;;;;;;;2.25;1.25;;;;;12.24;86.48;99844.22;5059711;28;45403;-50
2024/04/03 04:24:44;;;;;;;;;1.50;1.50;;;;;12.23;85.99;99836.41;5058602;28;46055;-48
2024/04/03 04:27:09;;;;;;;;;1.00;1.00;;;;;12.22;86.01;99834.75;5056130;28;45469;-53
2024/04/03 04:29:36;;;;;;;;;2.00;0.00;;;;;12.21;86.59;99833.03;5055994;28;59264;-49
2024/04/03 04:32:03;;;;;;;;;2.25;1.00;;;;;12.21;86.50;99835.66;5056595;28;45400;-51
2024/04/03 04:34:28;;;;;;;;;0.25;0.25;;;;;12.19;86.24;99837.50;5060064;28;45361;-53
2024/04/03 04:36:53;;;;;;;;;0.00;0.00;;;;;12.21;86.22;99833.03;5054887;28;45383;-48
2024/04/03 04:39:19;;;;;;;;;0.50;0.25;;;;;12.20;86.45;99834.81;5060593;28;45517;-49
2024/04/03 04:41:51;;;;;;;;;1.50;1.00;;;;;12.22;86.72;99835.56;5057388;28;60874;-49
2024/04/03 04:44:16;;;;;;;;;1.00;0.00;;;;;12.22;86.54;99830.34;5058705;28;45584;-50
2024/04/03 04:46:42;;;;;;;;;0.75;0.75;;;;;12.19;86.32;99821.75;5058033;28;46701;-52
2024/04/03 04:49:07;;;;;;;;;1.75;1.00;;;;;12.19;86.69;99827.00;5058372;28;45436;-50
2024/04/03 04:51:32;;;;;;;;;0.00;0.00;;;;;12.15;86.45;99816.66;5057494;28;71815;-50
2024/04/03 04:53:58;;;;;;;;;1.00;0.75;;;;;12.13;86.69;99823.75;5054519;28;45427;-49
2024/04/03 04:56:23;;;;;;;;;0.50;0.50;;;;;12.13;86.90;99825.53;5047478;28;66839;-51
2024/04/03 04:58:50;;;;;;;;;1.00;0.25;;;;;12.13;86.90;99823.75;5057846;28;66055;-52
2024/04/03 05:01:16;;;;;;;;;1.00;0.00;;;;;12.13;87.26;99826.38;5057286;28;45364;-53
2024/04/03 05:03:41;;;;;;;;;0.00;0.00;;;;;12.14;87.15;99816.72;5059526;28;46308;-53
2024/04/03 05:06:14;;;;;;;;;1.00;1.00;;;;;12.14;86.88;99817.56;5056852;28;73335;-51
2024/04/03 05:08:39;;;;;;;;;1.00;1.00;;;;;12.13;87.41;99823.75;5058328;28;45400;-53
2024/04/03 05:11:05;;;;;;;;;1.00;1.00;;;;;12.14;86.91;99819.34;5053929;28;69923;-50
2024/04/03 05:13:33;;;;;;;;;1.00;1.00;;;;;12.15;87.50;99823.69;5051471;28;76081;-52
2024/04/03 05:16:07;;;;;;;;;2.75;1.00;;;;;12.16;86.97;99822.75;5056035;28;45291;-53
2024/04/03 05:18:33;;;;;;;;;0.75;0.75;;;;;12.17;87.41;99826.25;5058340;28;45414;-48
2024/04/03 05:20:58;;;;;;;;;1.00;1.00;;;;;12.17;87.20;99836.72;5059150;28;45335;-48
2024/04/03 05:23:24;;;;;;;;;1.00;1.00;;;;;12.15;87.69;99824.53;5056739;28;68962;-48
2024/04/03 05:25:56;;;;;;;;;1.25;1.00;;;;;12.18;87.54;99827.91;5043841;28;45343;-53
2024/04/03 05:28:21;;;;;;;;;2.00;1.00;;;;;12.18;87.78;99828.75;5054541;28;45349;-52
2024/04/03 05:30:46;;;;;;;;;1.00;1.00;;;;;12.22;87.77;99835.56;5055827;28;45462;-52
2024/04/03 05:33:12;;;;;;;;;1.25;1.25;;;;;12.21;87.25;99833.88;5056764;28;72953;-53
2024/04/03 05:35:37;;;;;;;;;1.00;1.00;;;;;12.22;87.91;99832.97;5038980;28;62114;-53
2024/04/03 05:38:03;;;;;;;;;1.00;1.00;;;;;12.24;87.76;99830.25;5055846;28;59530;-53
2024/04/03 05:40:28;;;;;;;;;1.00;1.00;;;;;12.25;87.71;99831.94;5059521;28;45359;-54
2024/04/03 05:42:55;;;;;;;;;1.25;1.25;;;;;12.25;87.80;99831.94;5048786;28;67631;-49
2024/04/03 05:45:20;;;;;;;;;1.00;1.00;;;;;12.27;87.66;99820.47;5058581;27;45459;-50
2024/04/03 05:47:46;;;;;;;;;3.75;1.00;;;;;12.30;87.58;99833.41;5055184;28;45525;-58
2024/04/03 05:50:11;;;;;;;;;1.00;1.00;;;;;12.30;88.01;99825.53;5055167;28;67829;-49
2024/04/03 05:52:36;;;;;;;;;1.00;1.00;;;;;12.32;87.92;99828.97;5057719;28;73418;-53
2024/04/03 05:55:02;;;;;;;;;1.75;1.00;;;;;12.32;87.57;99828.09;5058994;28;45438;-51
2024/04/03 05:57:28;;;;;;;;;1.75;1.75;;;;;12.33;88.04;99829.81;5054626;27;45280;-50
2024/04/03 05:59:53;;;;;;;;;1.00;1.00;;;;;12.34;87.85;99821.88;5057390;28;45504;-53
2024/04/03 06:02:18;;;;;;;;;1.00;1.00;;;;;12.37;88.04;99831.34;5051505;28;46910;-51
2024/04/03 06:04:44;;;;;;;;;2.50;1.00;;;;;12.37;87.61;99826.09;5055034;28;72128;-57
2024/04/03 06:07:09;;;;;;;;;1.00;1.00;;;;;12.39;87.59;99831.28;5053528;28;61246;-49
2024/04/03 06:09:34;;;;;;;;;1.00;1.00;;;;;12.37;87.79;99820.84;5052173;28;72285;-47
2024/04/03 06:12:00;;;;;;;;;1.00;1.00;;;;;12.39;87.70;99826.03;5048529;28;75388;-49
2024/04/03 06:14:25;;;;;;;;;1.00;1.00;;;;;12.38;87.62;99825.19;5047953;28;62627;-50
2024/04/03 06:16:50;;;;;;;;;1.00;1.00;;;;;12.41;88.04;99821.56;5052767;28;45446;-53
2024/04/03 06:19:16;;;;;;;;;2.00;1.00;;;;;12.43;87.57;99819.69;5046664;28;45458;-52
2024/04/03 06:21:42;;;;;;;;;2.75;1.75;;;;;12.46;88.04;99832.66;5046110;28;66273;-55
2024/04/03 06:24:07;;;;;;;;;3.00;2.00;;;;;12.48;87.75;99834.31;5052369;28;46929;-56
2024/04/03 06:26:33;;;;;;;;;0.25;0.25;;;;;12.51;87.81;99836.75;5057547;28;45360;-51
2024/04/03 06:29:03;;;;;;;;;0.00;0.00;;;;;12.53;87.78;99845.41;5057232;28;45336;-51
2024/04/03 06:31:29;;;;;;;;;1.25;1.00;;;;;12.53;87.44;99839.31;5057817;28;46042;-53
2024/04/03 06:33:56;;;;;;;;;1.00;0.00;;;;;12.56;87.78;99846.19;5054728;28;45403;-52
2024/04/03 06:36:23;;;;;;;;;0.00;0.00;;;;;12.56;87.49;99846.19;5059514;28;45467;-53
2024/04/03 06:38:48;;;;;;;;;2.00;1.00;;;;;12.58;87.46;99842.56;5059115;28;45358;-52
2024/04/03 06:41:13;;;;;;;;;3.50;1.00;;;;;12.62;87.52;99843.25;5057578;28;46087;-54
2024/04/03 06:43:39;;;;;;;;;2.75;1.00;;;;;12.65;87.41;99853.63;5045166;28;45430;-52
2024/04/03 06:46:04;;;;;;;;;2.00;0.50;;;;;12.66;87.16;99856.16;5056095;28;48470;-52
2024/04/03 06:48:30;;;;;;;;;1.75;1.00;;;;;12.67;87.34;99862.25;5056166;28;71972;-49
2024/04/03 06:50:56;;;;;;;;;1.00;1.00;;;;;12.67;87.04;99855.22;5055747;28;45437;-52
2024/04/03 06:53:21;;;;;;;;;2.00;1.00;;;;;12.69;87.19;99863.03;5050335;28;45394;-53
2024/04/03 06:55:56;;;;;;;;;0.25;0.25;;;;;12.71;87.26;99856.78;5057148;28;59224;-51
2024/04/03 06:58:22;;;;;;;;;0.50;0.50;;;;;12.72;87.26;99853.22;5056159;28;45284;-48
2024/04/03 07:00:48;;;;;;;;;0.50;0.25;;;;;12.73;87.34;99860.19;5048266;28;45477;-52
2024/04/03 07:03:13;;;;;;;;;1.00;1.00;;;;;12.75;87.72;99865.38;5043252;28;45358;-51
2024/04/03 07:05:39;;;;;;;;;1.00;1.00;;;;;12.77;87.27;99858.25;5055345;28;56792;-51
2024/04/03 07:08:05;;;;;;;;;1.00;1.00;;;;;12.80;87.63;99867.72;5046720;28;45506;-53
2024/04/03 07:10:31;;;;;;;;;1.00;1.00;;;;;12.80;86.80;99865.97;5049937;28;45635;-51
2024/04/03 07:13:00;;;;;;;;;2.00;1.00;;;;;12.81;87.15;99870.28;5056580;28;45392;-58
2024/04/03 07:15:25;;;;;;;;;2.00;1.75;;;;;12.81;87.37;99865.03;5056684;28;45579;-67
2024/04/03 07:17:51;;;;;;;;;2.00;1.00;;;;;12.82;87.10;99866.75;5047339;28;45402;-65
2024/04/03 07:20:16;;;;;;;;;2.50;1.00;;;;;12.86;87.14;99870.06;5060102;28;58001;-67
2024/04/03 07:22:43;;;;;;;;;0.50;0.00;;;;;12.82;86.89;99861.50;5058277;28;73093;-62
2024/04/03 07:25:09;;;;;;;;;2.00;1.00;;;;;12.86;87.30;99878.78;5056838;28;45471;-64
2024/04/03 07:27:34;;;;;;;;;0.00;0.00;;;;;12.86;87.53;99878.78;5061432;28;45433;-63
2024/04/03 07:29:59;;;;;;;;;1.00;1.00;;;;;12.90;87.55;99877.69;5047441;28;74380;-63
2024/04/03 07:32:25;;;;;;;;;4.00;0.00;;;;;12.93;87.31;99876.72;5050773;28;75295;-65
2024/04/03 07:34:51;;;;;;;;;2.00;0.00;;;;;12.92;86.81;99872.38;5055231;28;45564;-64
2024/04/03 07:37:16;;;;;;;;;1.50;1.00;;;;;12.95;86.96;99880.09;5058109;28;58358;-68
2024/04/03 07:39:41;;;;;;;;;3.50;1.00;;;;;13.00;87.23;99883.34;5060842;27;47022;-69
2024/04/03 07:42:07;;;;;;;;;0.00;0.00;;;;;13.05;86.59;99888.34;5051040;28;45530;-64
2024/04/03 07:44:32;;;;;;;;;2.75;1.00;;;;;13.11;86.51;99893.31;5042594;27;45439;-64
2024/04/03 07:46:57;;;;;;;;;2.00;0.25;;;;;13.18;86.87;99892.06;5058358;28;73545;-64
2024/04/03 07:49:23;;;;;;;;;2.00;1.00;;;;;13.27;86.69;99891.59;5044665;28;61275;-64
2024/04/03 07:51:48;;;;;;;;;1.00;1.00;;;;;13.38;86.45;99904.19;5042004;28;46907;-64
2024/04/03 07:54:14;;;;;;;;;2.00;1.00;;;;;13.48;86.24;99904.59;5044053;28;45454;-63
2024/04/03 07:56:40;;;;;;;;;1.00;1.00;;;;;13.52;85.66;99910.53;5055881;28;45529;-63
2024/04/03 07:59:05;;;;;;;;;0.75;0.75;;;;;13.51;85.45;99903.56;5058276;28;46639;-67
2024/04/03 08:01:30;;;;;;;;;1.00;1.00;;;;;13.53;85.56;99909.56;5047036;28;70642;-63
2024/04/03 08:03:56;;;;;;;;;2.00;0.50;;;;;13.55;85.41;99905.94;5051354;28;68307;-70
2024/04/03 08:06:24;;;;;;;;;2.00;0.00;;;;;13.57;85.27;99908.50;5062095;28;45347;-62
2024/04/03 08:08:49;;;;;;;;;1.00;1.00;;;;;13.61;84.98;99915.28;5059485;28;46842;-64
2024/04/03 08:11:14;;;;;;;;;1.50;0.50;;;;;13.68;84.97;99911.41;5060707;28;71100;-64
2024/04/03 08:13:40;;;;;;;;;2.00;1.00;;;;;13.69;84.78;99913.13;5048942;27;60013;-63
2024/04/03 08:16:06;;;;;;;;;1.00;1.00;;;;;13.72;84.61;99909.47;5041968;28;45258;-64
2024/04/03 08:18:32;;;;;;;;;2.00;1.00;;;;;13.71;84.47;99900.72;5067373;28;46327;-62
2024/04/03 08:21:02;;;;;;;;;1.00;0.00;;;;;13.77;84.07;99904.81;5046988;27;45374;-62
2024/04/03 08:23:28;;;;;;;;;1.25;1.00;;;;;13.75;84.21;99896.16;5062781;27;45450;-72
2024/04/03 08:25:53;;;;;;;;;1.25;1.00;;;;;13.86;84.14;99904.31;5042649;28;45233;-60
2024/04/03 08:28:19;;;;;;;;;2.00;1.00;;;;;13.90;83.46;99905.84;5053944;28;45313;-63
2024/04/03 08:30:44;;;;;;;;;2.75;0.00;;;;;13.97;83.58;99904.59;5045052;28;45396;-65
2024/04/03 08:33:10;;;;;;;;;3.00;1.00;;;;;14.09;83.52;99918.84;5050715;28;45150;-62
2024/04/03 08:35:36;;;;;;;;;0.00;0.00;;;;;14.21;82.84;99917.31;5050568;28;45454;-61
2024/04/03 08:38:01;;;;;;;;;1.00;1.00;;;;;14.34;82.44;99914.84;5052222;28;45500;-63
2024/04/03 08:40:26;;;;;;;;;1.75;0.25;;;;;14.52;81.93;99920.88;5052827;28;45347;-63
2024/04/03 08:42:52;;;;;;;;;2.00;0.75;;;;;14.68;81.76;99934.91;5037404;28;45363;-62
2024/04/03 08:45:20;;;;;;;;;0.50;0.50;;;;;14.86;81.03;99934.81;5043607;28;45359;-60
2024/04/03 08:47:46;;;;;;;;;0.50;0.00;;;;;14.97;80.39;99927.94;5051516;28;45470;-62
2024/04/03 08:50:12;;;;;;;;;1.00;1.00;;;;;15.05;79.77;99937.19;5056680;28;45761;-63
2024/04/03 08:52:38;;;;;;;;;0.00;0.00;;;;;15.13;79.06;99934.97;5054652;28;52011;-64
2024/04/03 08:55:04;;;;;;;;;1.50;1.00;;;;;15.18;78.80;99933.75;5035320;28;47077;-59
2024/04/03 08:57:30;;;;;;;;;2.00;1.00;;;;;15.23;78.51;99932.63;5051312;28;46534;-61
2024/04/03 08:59:57;;;;;;;;;4.00;1.00;;;;;15.28;78.32;99943.75;5050467;28;59985;-59
2024/04/03 09:02:22;;;;;;;;;1.00;1.00;;;;;15.34;78.22;99941.59;5049450;28;45395;-60
2024/04/03 09:04:47;;;;;;;;;1.50;1.50;;;;;15.42;77.63;99942.94;5059383;28;72169;-63
2024/04/03 09:07:19;;;;;;;;;2.50;1.50;;;;;15.43;77.01;99944.63;5054612;28;69716;-73
2024/04/03 09:09:44;;;;;;;;;2.00;1.00;;;;;15.42;77.18;99942.94;5039869;28;45401;-64
2024/04/03 09:12:09;;;;;;;;;2.00;0.25;;;;;15.37;77.19;99941.44;5046713;28;45437;-64
2024/04/03 09:14:35;;;;;;;;;1.50;1.25;;;;;15.42;76.98;99940.28;5054645;28;57734;-63
2024/04/03 09:17:01;;;;;;;;;1.00;1.00;;;;;15.42;76.91;99949.03;5049171;28;75404;-63
2024/04/03 09:19:28;;;;;;;;;1.75;1.75;;;;;15.44;76.76;99941.91;5032668;28;45351;-63
2024/04/03 09:21:54;;;;;;;;;4.00;1.00;;;;;15.49;76.53;99946.88;5059699;28;45398;-63
2024/04/03 09:24:19;;;;;;;;;2.50;1.00;;;;;15.50;76.58;99954.72;5054488;28;47291;-62
2024/04/03 09:26:56;;;;;;;;;2.00;1.25;;;;;15.55;76.30;99944.75;5046868;28;53251;-61
2024/04/03 09:29:22;;;;;;;;;2.00;2.00;;;;;15.66;76.44;99941.44;5040014;28;45879;-63
2024/04/03 09:31:48;;;;;;;;;1.00;1.00;;;;;15.82;75.82;99936.13;5049870;28;45345;-61
2024/04/03 09:34:14;;;;;;;;;5.00;1.75;;;;;15.95;75.67;99957.31;5050015;28;45499;-62
2024/04/03 09:36:41;;;;;;;;;6.50;1.00;;;;;16.02;74.62;99960.41;5059576;28;64560;-61
2024/04/03 09:39:09;;;;;;;;;2.50;2.00;;;;;16.09;74.55;99959.94;5053385;28;45788;-61
2024/04/03 09:41:35;;;;;;;;;1.50;1.00;;;;;16.14;74.04;99964.94;5054048;28;65790;-60
2024/04/03 09:44:02;;;;;;;;;1.00;1.00;;;;;16.20;73.66;99974.25;5039416;28;45402;-61
2024/04/03 09:46:55;;;;;;;;;5.00;1.00;;;;;16.25;73.41;99975.66;5054068;28;46346;-61
2024/04/03 09:49:23;;;;;;;;;4.00;2.00;;;;;16.27;72.77;99971.16;5055016;28;46581;-62
2024/04/03 09:51:49;;;;;;;;;5.00;2.00;;;;;16.35;72.64;99977.75;5055756;28;45556;-61
2024/04/03 09:54:15;;;;;;;;;3.00;1.00;;;;;16.43;72.38;99970.16;5040902;28;45717;-64
2024/04/03 09:56:41;;;;;;;;;2.00;2.00;;;;;16.50;72.55;99974.97;5045421;28;48570;-63
2024/04/03 09:59:07;;;;;;;;;4.75;2.00;;;;;16.59;72.33;99975.31;5042908;28;45387;-64
2024/04/03 10:01:35;;;;;;;;;4.00;2.00;;;;;16.66;72.20;99966.91;5041311;28;61628;-64
2024/04/03 10:04:02;;;;;;;;;2.50;1.75;;;;;16.78;71.73;99959.13;5044577;28;46047;-62
2024/04/03 10:06:27;;;;;;;;;1.25;1.25;;;;;16.83;71.27;99957.03;5055405;28;47208;-60
2024/04/03 10:08:53;;;;;;;;;3.00;2.00;;;;;16.86;70.56;99968.28;5045763;28;45460;-63
2024/04/03 10:11:18;;;;;;;;;5.00;1.50;;;;;16.91;70.58;99965.34;5058638;28;54170;-60
2024/04/03 10:13:44;;;;;;;;;4.50;2.00;;;;;16.95;70.46;99969.47;5049192;28;69300;-62
2024/04/03 10:16:14;;;;;;;;;2.75;0.75;;;;;17.00;70.46;99967.38;5040678;28;46157;-61
2024/04/03 10:18:48;;;;;;;;;8.50;2.00;;;;;17.05;70.36;99967.91;5054863;28;45498;-59
2024/04/03 10:21:14;;;;;;;;;3.25;1.75;;;;;17.13;69.77;99977.13;5060255;28;45426;-59
2024/04/03 10:23:50;;;;;;;;;4.50;0.50;;;;;17.16;69.42;99969.00;5044256;28;45499;-68
2024/04/03 10:26:16;;;;;;;;;2.75;1.75;;;;;17.19;69.52;99971.41;5039970;28;45645;-61
2024/04/03 10:28:44;;;;;;;;;2.50;2.50;;;;;17.26;69.19;99968.28;5054310;28;45319;-58
2024/04/03 10:31:15;;;;;;;;;3.50;2.25;;;;;17.35;69.31;99956.25;5043977;28;45560;-61
2024/04/03 10:33:41;;;;;;;;;3.00;2.50;;;;;17.46;68.37;99971.38;5051742;28;46320;-59
2024/04/03 10:36:06;;;;;;;;;3.00;1.75;;;;;17.57;67.85;99971.47;5057817;28;71125;-60
2024/04/03 10:38:33;;;;;;;;;3.00;0.75;;;;;17.69;67.85;99968.94;5053323;28;45256;-64
2024/04/03 10:40:58;;;;;;;;;6.00;2.00;;;;;17.82;67.63;99977.72;5047152;28;45242;-64
2024/04/03 10:43:24;;;;;;;;;5.25;1.00;;;;;17.93;67.04;99972.56;5054079;28;67300;-61
2024/04/03 10:45:50;;;;;;;;;4.25;2.75;;;;;17.97;67.32;99984.66;5051054;28;46037;-61
2024/04/03 10:48:16;;;;;;;;;2.00;2.00;;;;;17.97;66.91;99976.72;5036172;28;45430;-61
2024/04/03 10:50:42;;;;;;;;;4.50;2.25;;;;;17.97;66.88;99975.84;5041397;27;45425;-61
2024/04/03 10:53:09;;;;;;;;;3.50;1.00;;;;;17.93;66.70;99972.56;5045799;28;45698;-61
2024/04/03 10:55:36;;;;;;;;;3.25;1.50;;;;;17.87;67.38;99994.19;5039407;28;45491;-60
2024/04/03 10:58:02;;;;;;;;;6.75;2.50;;;;;17.78;68.50;99995.63;5034068;28;45756;-61
2024/04/03 11:00:36;;;;;;;;;3.75;2.00;;;;;17.74;68.65;99991.50;5045721;28;45337;-61
2024/04/03 11:03:02;;;;;;;;;8.25;2.50;;;;;17.71;68.53;99996.16;5047062;28;45523;-61
2024/04/03 11:05:29;;;;;;;;;9.00;2.00;;;;;17.66;69.02;99996.47;5043572;28;46108;-59
2024/04/03 11:07:54;;;;;;;;;5.25;2.25;;;;;17.67;69.19;99990.22;5042229;28;45577;-60
2024/04/03 11:10:21;;;;;;;;;3.75;1.50;;;;;17.75;69.35;99997.63;5038015;28;45332;-60
2024/04/03 11:12:47;;;;;;;;;8.00;2.00;;;;;17.83;69.50;99990.88;5040656;28;45403;-61
2024/04/03 11:15:13;;;;;;;;;3.00;3.00;;;;;17.87;69.17;99991.53;5038867;28;46211;-61
2024/04/03 11:17:39;;;;;;;;;7.00;4.25;;;;;17.94;69.17;99992.78;5047122;28;45727;-60
2024/04/03 11:20:06;;;;;;;;;23.75;17.25;;;;;17.93;68.72;99991.09;5042930;28;45358;-61
2024/04/03 11:22:31;;;;;;;;;14.25;14.00;;;;;17.93;68.26;99995.53;5045462;28;46011;-61
2024/04/03 11:24:56;;;;;;;;;8.25;6.25;;;;;17.87;68.75;99995.97;5043084;28;45858;-61
2024/04/03 11:27:22;;;;;;;;;11.75;7.75;;;;;17.75;69.00;99979.94;5043477;28;56311;-61
2024/04/03 11:29:47;;;;;;;;;6.50;3.50;;;;;17.71;68.46;99985.56;5044136;28;45296;-61